createdAt,value
2022-10-31T00:01:35.041Z,14.15
2022-10-31T00:04:02.224Z,13.63
2022-10-31T00:06:29.773Z,13.93
2022-10-31T00:09:03.291Z,13.68
2022-10-31T00:11:31.029Z,13.70
2022-10-31T00:14:01.502Z,13.73
2022-10-31T00:16:29.673Z,13.13
2022-10-31T00:19:03.433Z,13.80
2022-10-31T00:21:31.702Z,14.10
2022-10-31T00:24:00.449Z,14.00
2022-10-31T00:26:32.387Z,15.35
2022-10-31T00:29:02.862Z,15.18
2022-10-31T00:31:30.323Z,13.88
2022-10-31T00:33:58.450Z,13.93
2022-10-31T00:36:25.512Z,14.35
2022-10-31T00:38:52.583Z,13.63
2022-10-31T00:41:19.819Z,14.05
2022-10-31T00:43:49.048Z,14.73
2022-10-31T00:46:16.227Z,13.80
2022-10-31T00:48:43.722Z,15.25
2022-10-31T00:51:11.136Z,14.68
2022-10-31T00:53:38.178Z,14.63
2022-10-31T00:56:06.201Z,14.98
2022-10-31T00:58:33.254Z,14.15
2022-10-31T01:01:00.415Z,15.25
2022-10-31T01:03:33.976Z,14.93
2022-10-31T01:06:11.492Z,15.18
2022-10-31T01:08:39.356Z,15.07
2022-10-31T01:11:22.412Z,15.75
2022-10-31T01:13:53.236Z,13.70
2022-10-31T01:16:24.321Z,12.05
2022-10-31T01:18:52.742Z,12.45
2022-10-31T01:21:27.267Z,12.88
2022-10-31T01:23:56.448Z,13.10
2022-10-31T01:26:27.428Z,12.80
2022-10-31T01:28:58.972Z,12.05
2022-10-31T01:31:30.348Z,12.10
2022-10-31T01:34:02.997Z,12.33
2022-10-31T01:36:38.685Z,12.88
2022-10-31T01:39:10.432Z,13.07
2022-10-31T01:41:46.376Z,13.13
2022-10-31T01:44:18.952Z,11.52
2022-10-31T01:47:18.862Z,11.82
2022-10-31T01:50:04.230Z,12.50
2022-10-31T01:55:34.443Z,11.43
2022-10-31T01:58:09.899Z,11.85
2022-10-31T02:00:37.504Z,10.68
2022-10-31T02:03:04.680Z,11.13
2022-10-31T02:05:34.610Z,10.77
2022-10-31T02:08:12.253Z,10.80
2022-10-31T02:10:39.581Z,10.85
2022-10-31T02:13:09.290Z,10.75
2022-10-31T02:15:39.135Z,11.52
2022-10-31T02:18:08.390Z,11.23
2022-10-31T02:21:36.139Z,10.98
2022-10-31T02:24:38.410Z,10.57
2022-10-31T02:27:19.279Z,10.43
2022-10-31T02:30:06.596Z,10.43
2022-10-31T02:33:03.340Z,10.75
2022-10-31T02:35:58.827Z,10.48
2022-10-31T02:39:10.236Z,11.10
2022-10-31T02:42:00.100Z,11.15
2022-10-31T02:44:51.227Z,11.48
2022-10-31T02:47:30.297Z,11.90
2022-10-31T02:50:19.544Z,12.02
2022-10-31T02:52:52.458Z,12.68
2022-10-31T02:55:28.761Z,11.88
2022-10-31T02:58:12.335Z,12.80
2022-10-31T03:00:56.597Z,13.65
2022-10-31T03:03:44.131Z,12.40
2022-10-31T03:06:30.841Z,12.55
2022-10-31T03:09:20.459Z,13.10
2022-10-31T03:12:04.076Z,13.43
2022-10-31T03:14:52.893Z,13.10
2022-10-31T03:18:02.390Z,13.73
2022-10-31T03:21:12.585Z,13.35
2022-10-31T03:23:45.265Z,12.18
2022-10-31T03:26:15.034Z,13.25
2022-10-31T03:28:55.995Z,12.25
2022-10-31T03:31:35.764Z,12.60
2022-10-31T03:34:05.671Z,12.18
2022-10-31T03:36:35.603Z,11.00
2022-10-31T03:39:06.883Z,10.40
2022-10-31T03:41:39.538Z,12.15
2022-10-31T03:44:15.815Z,11.73
2022-10-31T03:46:43.909Z,11.57
2022-10-31T03:49:12.659Z,11.40
2022-10-31T03:52:12.412Z,12.10
2022-10-31T03:54:54.148Z,11.02
2022-10-31T03:57:47.114Z,11.23
2022-10-31T04:00:17.242Z,10.55
2022-10-31T04:02:59.027Z,11.23
2022-10-31T04:05:26.438Z,12.55
2022-10-31T04:07:59.487Z,11.90
2022-10-31T04:10:32.883Z,11.65
2022-10-31T04:13:11.274Z,11.18
2022-10-31T04:15:39.453Z,11.63
2022-10-31T04:18:07.493Z,12.45
2022-10-31T04:20:40.446Z,11.52
2022-10-31T04:23:23.648Z,12.10
2022-10-31T04:25:50.712Z,11.55
2022-10-31T04:30:44.990Z,13.00
2022-10-31T04:33:14.341Z,11.60
2022-10-31T04:35:41.900Z,12.25
2022-10-31T04:38:08.975Z,12.25
2022-10-31T04:40:36.151Z,12.38
2022-10-31T04:43:03.891Z,11.90
2022-10-31T04:45:31.195Z,11.45
2022-10-31T04:47:58.646Z,12.57
2022-10-31T04:50:25.998Z,12.18
2022-10-31T04:52:53.062Z,12.13
2022-10-31T04:55:20.203Z,13.55
2022-10-31T04:57:50.278Z,12.80
2022-10-31T05:00:20.842Z,12.18
2022-10-31T05:02:59.654Z,12.45
2022-10-31T05:05:31.961Z,12.60
2022-10-31T05:07:59.119Z,11.98
2022-10-31T05:10:30.568Z,12.77
2022-10-31T05:13:01.305Z,13.15
2022-10-31T05:15:30.358Z,12.82
2022-10-31T05:17:58.425Z,13.13
2022-10-31T05:20:29.359Z,13.48
2022-10-31T05:22:58.352Z,13.90
2022-10-31T05:25:28.451Z,13.60
2022-10-31T05:27:57.625Z,13.30
2022-10-31T05:30:29.953Z,13.65
2022-10-31T05:32:57.895Z,12.90
2022-10-31T05:35:31.887Z,15.38
2022-10-31T05:38:00.044Z,15.25
2022-10-31T05:40:28.664Z,15.85
2022-10-31T05:42:58.198Z,14.02
2022-10-31T05:45:25.979Z,16.75
2022-10-31T05:48:01.994Z,15.10
2022-10-31T05:50:32.067Z,14.60
2022-10-31T05:53:05.923Z,15.30
2022-10-31T05:55:33.714Z,15.18
2022-10-31T05:58:01.684Z,13.75
2022-10-31T06:00:30.028Z,14.75
2022-10-31T06:05:38.719Z,13.57
2022-10-31T06:08:06.301Z,13.15
2022-10-31T06:10:33.378Z,13.20
2022-10-31T06:13:00.565Z,13.98
2022-10-31T06:15:27.658Z,14.15
2022-10-31T06:18:03.915Z,13.68
2022-10-31T06:20:34.214Z,12.63
2022-10-31T06:23:02.232Z,12.02
2022-10-31T06:25:29.988Z,11.20
2022-10-31T06:27:57.880Z,12.27
2022-10-31T06:30:25.502Z,12.68
2022-10-31T06:32:52.710Z,11.57
2022-10-31T06:35:22.753Z,12.55
2022-10-31T06:37:56.591Z,13.55
2022-10-31T06:40:24.437Z,14.50
2022-10-31T06:43:03.686Z,13.80
2022-10-31T06:45:30.784Z,13.68
2022-10-31T06:50:46.102Z,14.65
2022-10-31T06:53:15.222Z,13.18
2022-10-31T06:55:43.063Z,14.05
2022-10-31T06:58:11.848Z,14.45
2022-10-31T07:00:39.287Z,14.80
2022-10-31T07:03:12.595Z,13.95
2022-10-31T07:05:40.437Z,14.32
2022-10-31T07:08:11.665Z,14.15
2022-10-31T07:10:41.222Z,15.90
2022-10-31T07:13:15.134Z,14.60
2022-10-31T07:15:44.698Z,18.88
2022-10-31T07:18:13.563Z,20.08
2022-10-31T07:20:41.296Z,22.23
2022-10-31T07:23:12.200Z,21.85
2022-10-31T07:25:41.160Z,22.02
2022-10-31T07:28:08.986Z,23.30
2022-10-31T07:30:36.286Z,20.67
2022-10-31T07:33:06.146Z,19.73
2022-10-31T07:35:35.875Z,19.83
2022-10-31T07:38:14.189Z,20.70
2022-10-31T07:40:44.844Z,20.60
2022-10-31T07:43:14.434Z,19.42
2022-10-31T07:45:45.708Z,20.48
2022-10-31T07:48:12.735Z,20.23
2022-10-31T07:50:40.335Z,16.38
2022-10-31T07:53:15.435Z,15.30
2022-10-31T07:55:43.024Z,18.20
2022-10-31T07:58:13.895Z,15.88
2022-10-31T08:00:43.876Z,15.82
2022-10-31T08:03:14.468Z,15.93
2022-10-31T08:05:42.342Z,18.33
2022-10-31T08:08:09.995Z,18.15
2022-10-31T08:10:37.805Z,17.95
2022-10-31T08:13:13.800Z,17.55
2022-10-31T08:15:42.868Z,18.13
2022-10-31T08:18:16.721Z,17.05
2022-10-31T08:20:44.703Z,16.40
2022-10-31T08:23:13.789Z,19.92
2022-10-31T08:25:42.873Z,19.10
2022-10-31T08:28:12.697Z,18.27
2022-10-31T08:30:41.048Z,18.45
2022-10-31T08:33:16.068Z,18.92
2022-10-31T08:35:43.306Z,18.52
2022-10-31T08:38:12.820Z,17.65
2022-10-31T08:40:43.063Z,17.35
2022-10-31T08:43:18.126Z,18.15
2022-10-31T08:45:50.381Z,18.20
2022-10-31T08:50:46.728Z,19.92
2022-10-31T08:53:20.029Z,19.17
2022-10-31T08:55:48.207Z,19.05
2022-10-31T08:58:19.094Z,16.60
2022-10-31T09:00:50.749Z,15.70
2022-10-31T09:03:25.062Z,15.48
2022-10-31T09:05:56.720Z,15.60
2022-10-31T09:08:24.471Z,17.58
2022-10-31T09:10:52.022Z,15.32
2022-10-31T09:13:28.120Z,15.68
2022-10-31T09:15:57.451Z,16.83
2022-10-31T09:18:25.961Z,17.05
2022-10-31T09:20:52.979Z,17.08
2022-10-31T09:23:23.800Z,16.55
2022-10-31T09:25:53.124Z,15.48
2022-10-31T09:28:24.259Z,13.63
2022-10-31T09:30:53.724Z,15.70
2022-10-31T09:33:21.925Z,16.70
2022-10-31T09:35:49.198Z,15.15
2022-10-31T09:38:21.880Z,16.55
2022-10-31T09:40:57.885Z,18.73
2022-10-31T09:43:44.877Z,18.25
2022-10-31T09:46:18.000Z,17.20
2022-10-31T09:49:00.528Z,17.20
2022-10-31T09:51:53.145Z,17.90
2022-10-31T09:54:33.399Z,17.17
2022-10-31T09:57:01.834Z,16.98
2022-10-31T09:59:35.848Z,18.33
2022-10-31T10:02:25.948Z,17.98
2022-10-31T10:04:54.842Z,18.23
2022-10-31T10:08:11.947Z,17.63
2022-10-31T10:11:06.984Z,17.25
2022-10-31T10:14:19.106Z,18.05
2022-10-31T10:17:20.120Z,17.73
2022-10-31T10:20:15.005Z,18.65
2022-10-31T10:23:17.275Z,18.33
2022-10-31T10:25:50.850Z,18.90
2022-10-31T10:28:42.733Z,16.67
2022-10-31T10:31:41.469Z,18.88
2022-10-31T10:34:21.958Z,18.92
2022-10-31T10:37:01.400Z,18.90
2022-10-31T10:39:44.767Z,19.67
2022-10-31T10:42:50.790Z,18.67
2022-10-31T10:45:39.176Z,18.55
2022-10-31T10:48:39.768Z,18.38
2022-10-31T10:51:25.704Z,18.95
2022-10-31T10:54:33.587Z,18.70
2022-10-31T10:57:30.114Z,18.27
2022-10-31T10:59:59.786Z,19.50
2022-10-31T11:02:32.490Z,18.42
2022-10-31T11:05:02.320Z,18.33
2022-10-31T11:07:40.839Z,18.85
2022-10-31T11:10:17.045Z,19.05
2022-10-31T11:12:59.611Z,19.45
2022-10-31T11:15:28.591Z,19.42
2022-10-31T11:17:57.310Z,18.13
2022-10-31T11:20:35.783Z,18.23
2022-10-31T11:23:19.388Z,18.40
2022-10-31T11:25:58.376Z,19.48
2022-10-31T11:28:27.829Z,19.17
2022-10-31T11:31:14.538Z,21.38
2022-10-31T11:33:54.281Z,21.33
2022-10-31T11:36:30.354Z,20.73
2022-10-31T11:38:59.854Z,21.75
2022-10-31T11:41:39.566Z,20.90
2022-10-31T11:44:17.698Z,21.38
2022-10-31T11:46:59.807Z,19.83
2022-10-31T11:49:44.028Z,19.50
2022-10-31T11:52:29.599Z,18.88
2022-10-31T11:55:37.399Z,20.35
2022-10-31T11:58:20.468Z,20.70
2022-10-31T12:00:52.979Z,21.33
2022-10-31T12:03:55.993Z,21.08
2022-10-31T12:06:41.166Z,21.58
2022-10-31T12:09:35.054Z,22.63
2022-10-31T12:12:23.653Z,23.20
2022-10-31T12:15:24.673Z,22.75
2022-10-31T12:18:25.932Z,22.50
2022-10-31T12:21:47.116Z,22.83
2022-10-31T12:25:09.012Z,22.83
2022-10-31T12:27:41.653Z,22.00
2022-10-31T12:30:20.202Z,22.60
2022-10-31T12:33:21.321Z,24.23
2022-10-31T12:35:56.955Z,24.10
2022-10-31T12:38:44.953Z,25.27
2022-10-31T12:41:52.154Z,24.70
2022-10-31T12:44:58.096Z,24.02
2022-10-31T12:48:08.178Z,24.17
2022-10-31T12:51:09.930Z,24.17
2022-10-31T12:54:16.600Z,24.08
2022-10-31T12:56:52.003Z,24.83
2022-10-31T12:59:44.206Z,25.23
2022-10-31T13:02:58.870Z,24.00
2022-10-31T13:05:38.777Z,23.92
2022-10-31T13:08:19.010Z,24.92
2022-10-31T13:11:31.810Z,26.15
2022-10-31T13:14:07.670Z,23.48
2022-10-31T13:16:48.748Z,23.65
2022-10-31T13:19:45.953Z,25.13
2022-10-31T13:22:30.491Z,23.88
2022-10-31T13:25:14.873Z,24.75
2022-10-31T13:28:10.285Z,24.25
2022-10-31T13:30:43.097Z,23.40
2022-10-31T13:33:19.994Z,23.88
2022-10-31T13:36:21.029Z,24.35
2022-10-31T13:39:06.038Z,24.65
2022-10-31T13:41:43.870Z,24.90
2022-10-31T13:44:21.669Z,24.92
2022-10-31T13:46:49.075Z,25.45
2022-10-31T13:49:31.403Z,25.63
2022-10-31T13:54:47.823Z,25.25
2022-10-31T13:57:23.405Z,25.10
2022-10-31T13:59:55.963Z,30.48
2022-10-31T14:02:35.370Z,26.05
2022-10-31T14:05:20.873Z,24.90
2022-10-31T14:07:51.080Z,25.20
2022-10-31T14:10:34.555Z,25.02
2022-10-31T14:13:32.538Z,26.63
2022-10-31T14:16:20.061Z,25.38
2022-10-31T14:18:58.370Z,25.90
2022-10-31T14:21:25.359Z,26.75
2022-10-31T14:23:55.077Z,25.75
2022-10-31T14:26:28.383Z,27.85
2022-10-31T14:29:19.273Z,26.20
2022-10-31T14:32:26.800Z,24.85
2022-10-31T14:34:56.658Z,27.70
2022-10-31T14:38:13.530Z,26.50
2022-10-31T14:41:05.308Z,27.00
2022-10-31T14:44:03.729Z,27.97
2022-10-31T14:47:00.704Z,26.80
2022-10-31T14:49:41.793Z,27.05
2022-10-31T14:52:14.702Z,27.75
2022-10-31T14:54:51.434Z,29.02
2022-10-31T14:57:30.600Z,26.15
2022-10-31T15:00:05.295Z,24.95
2022-10-31T15:03:16.942Z,23.52
2022-10-31T15:05:55.056Z,23.02
2022-10-31T15:08:51.747Z,22.77
2022-10-31T15:11:27.815Z,22.50
2022-10-31T15:13:58.825Z,20.13
2022-10-31T15:16:35.750Z,21.42
2022-10-31T15:19:11.247Z,21.23
2022-10-31T15:21:44.574Z,21.73
2022-10-31T15:24:19.616Z,21.13
2022-10-31T15:26:53.338Z,20.02
2022-10-31T15:29:24.501Z,19.77
2022-10-31T15:32:01.431Z,20.33
2022-10-31T15:34:40.883Z,19.63
2022-10-31T15:37:17.160Z,20.50
2022-10-31T15:39:45.979Z,19.77
2022-10-31T15:42:40.377Z,18.50
2022-10-31T15:45:22.547Z,20.30
2022-10-31T15:48:04.002Z,19.38
2022-10-31T15:50:41.414Z,19.48
2022-10-31T15:53:20.641Z,19.15
2022-10-31T15:56:00.384Z,20.05
2022-10-31T15:58:29.734Z,22.10
2022-10-31T16:01:04.100Z,22.00
2022-10-31T16:03:33.965Z,25.27
2022-10-31T16:06:04.904Z,26.92
2022-10-31T16:08:32.497Z,25.88
2022-10-31T16:11:39.290Z,31.00
2022-10-31T16:14:28.059Z,29.63
2022-10-31T16:16:59.059Z,31.13
2022-10-31T16:19:33.676Z,29.80
2022-10-31T16:22:14.758Z,26.90
2022-10-31T16:24:52.546Z,28.80
2022-10-31T16:27:33.592Z,26.70
2022-10-31T16:30:24.969Z,27.85
2022-10-31T16:33:02.313Z,27.88
2022-10-31T16:35:39.495Z,24.70
2022-10-31T16:38:07.059Z,23.85
2022-10-31T16:40:35.309Z,25.92
2022-10-31T16:43:02.961Z,24.33
2022-10-31T16:45:32.994Z,24.92
2022-10-31T16:48:12.250Z,23.17
2022-10-31T16:50:44.320Z,24.63
2022-10-31T16:53:14.494Z,24.08
2022-10-31T16:55:57.774Z,24.50
2022-10-31T16:58:29.249Z,28.05
2022-10-31T17:00:57.427Z,26.60
2022-10-31T17:03:24.613Z,28.08
2022-10-31T17:05:51.855Z,26.58
2022-10-31T17:08:19.002Z,27.08
2022-10-31T17:10:46.830Z,27.02
2022-10-31T17:13:22.671Z,29.33
2022-10-31T17:15:54.943Z,28.13
2022-10-31T17:21:00.478Z,28.27
2022-10-31T17:23:28.887Z,25.40
2022-10-31T17:25:56.822Z,25.35
2022-10-31T17:28:25.120Z,24.15
2022-10-31T17:30:54.037Z,24.88
2022-10-31T17:33:21.884Z,25.50
2022-10-31T17:35:51.990Z,26.50
2022-10-31T17:38:19.125Z,26.27
2022-10-31T17:43:18.908Z,26.80
2022-10-31T17:45:46.102Z,26.02
2022-10-31T17:48:21.617Z,24.95
2022-10-31T17:50:48.667Z,23.50
2022-10-31T17:53:15.714Z,24.10
2022-10-31T17:55:42.767Z,26.20
2022-10-31T17:58:12.931Z,26.13
2022-10-31T18:00:45.959Z,25.85
2022-10-31T18:03:15.950Z,26.13
2022-10-31T18:05:56.458Z,26.38
2022-10-31T18:08:32.724Z,27.95
2022-10-31T18:11:00.759Z,25.70
2022-10-31T18:13:28.601Z,26.33
2022-10-31T18:15:55.847Z,26.05
2022-10-31T18:18:23.002Z,28.25
2022-10-31T18:20:50.062Z,28.30
2022-10-31T18:23:17.197Z,27.10
2022-10-31T18:25:44.559Z,28.42
2022-10-31T18:28:11.765Z,27.98
2022-10-31T18:30:42.443Z,27.08
2022-10-31T18:33:12.184Z,27.98
2022-10-31T18:35:40.417Z,26.35
2022-10-31T18:38:08.029Z,27.20
2022-10-31T18:40:36.312Z,29.67
2022-10-31T18:43:06.236Z,28.80
2022-10-31T18:45:47.220Z,28.95
2022-10-31T18:48:17.325Z,28.48
2022-10-31T18:50:44.675Z,29.48
2022-10-31T18:53:11.761Z,28.77
2022-10-31T18:55:47.549Z,28.40
2022-10-31T18:58:17.870Z,28.95
2022-10-31T19:00:46.061Z,28.00
2022-10-31T19:03:14.329Z,29.20
2022-10-31T19:05:41.680Z,28.95
2022-10-31T19:08:08.793Z,28.75
2022-10-31T19:10:38.829Z,29.50
2022-10-31T19:13:06.438Z,29.27
2022-10-31T19:15:35.715Z,29.15
2022-10-31T19:18:03.588Z,31.23
2022-10-31T19:20:31.684Z,27.17
2022-10-31T19:22:59.197Z,28.50
2022-10-31T19:25:26.521Z,26.65
2022-10-31T19:27:53.616Z,26.83
2022-10-31T19:30:23.451Z,27.08
2022-10-31T19:32:55.974Z,27.15
2022-10-31T19:35:23.116Z,26.80
2022-10-31T19:37:50.203Z,28.90
2022-10-31T19:40:19.880Z,26.80
2022-10-31T19:42:47.857Z,27.45
2022-10-31T19:45:15.078Z,27.30
2022-10-31T19:47:42.566Z,28.75
2022-10-31T19:50:10.046Z,27.90
2022-10-31T19:52:37.179Z,30.90
2022-10-31T19:55:04.680Z,33.85
2022-10-31T19:58:00.405Z,34.60
2022-10-31T20:00:22.518Z,32.50
2022-10-31T20:02:49.691Z,33.28
2022-10-31T20:05:19.292Z,32.58
2022-10-31T20:07:46.475Z,33.35
2022-10-31T20:10:13.651Z,33.15
2022-10-31T20:12:40.918Z,34.83
2022-10-31T20:15:10.586Z,38.70
2022-10-31T20:17:37.645Z,40.30
2022-10-31T20:20:08.868Z,38.75
2022-10-31T20:22:36.902Z,36.90
2022-10-31T20:25:05.254Z,38.00
2022-10-31T20:27:32.758Z,37.03
2022-10-31T20:30:00.258Z,35.85
2022-10-31T20:32:27.319Z,38.78
2022-10-31T20:34:54.475Z,40.40
2022-10-31T20:37:21.550Z,38.95
2022-10-31T20:39:50.391Z,41.60
2022-10-31T20:42:22.108Z,41.90
2022-10-31T20:44:49.194Z,39.53
2022-10-31T20:47:18.494Z,40.40
2022-10-31T20:49:47.613Z,47.00
2022-10-31T20:52:14.700Z,51.03
2022-10-31T20:54:41.964Z,47.42
2022-10-31T20:57:09.041Z,49.63
2022-10-31T20:59:37.653Z,51.72
2022-10-31T21:02:04.877Z,47.63
2022-10-31T21:04:34.389Z,37.38
2022-10-31T21:07:01.473Z,44.53
2022-10-31T21:09:28.600Z,45.72
2022-10-31T21:11:55.769Z,44.38
2022-10-31T21:14:22.883Z,44.38
2022-10-31T21:16:52.462Z,45.05
2022-10-31T21:19:21.883Z,40.10
2022-10-31T21:21:54.143Z,40.33
2022-10-31T21:24:22.034Z,42.53
2022-10-31T21:26:52.015Z,43.97
2022-10-31T21:29:20.338Z,40.30
2022-10-31T21:31:48.676Z,39.92
2022-10-31T21:34:16.460Z,38.65
2022-10-31T21:36:43.601Z,38.65
2022-10-31T21:39:10.784Z,40.05
2022-10-31T21:41:38.249Z,39.08
2022-10-31T21:44:05.596Z,37.38
2022-10-31T21:46:34.119Z,37.35
2022-10-31T21:49:03.607Z,48.00
2022-10-31T21:51:34.636Z,47.55
2022-10-31T21:54:20.786Z,46.90
2022-10-31T21:56:51.673Z,43.75
2022-10-31T21:59:21.249Z,42.50
2022-10-31T22:01:49.143Z,40.67
2022-10-31T22:04:16.774Z,45.28
2022-10-31T22:06:44.316Z,41.78
2022-10-31T22:09:14.930Z,39.80
2022-10-31T22:11:44.566Z,31.95
2022-10-31T22:14:14.470Z,33.83
2022-10-31T22:16:42.487Z,33.67
2022-10-31T22:19:13.197Z,33.35
2022-10-31T22:21:48.922Z,34.58
2022-10-31T22:24:17.653Z,31.77
2022-10-31T22:29:20.624Z,29.40
2022-10-31T22:31:53.550Z,26.73
2022-10-31T22:34:24.545Z,28.02
2022-10-31T22:36:51.770Z,32.33
2022-10-31T22:39:18.883Z,29.92
2022-10-31T22:41:45.975Z,31.55
2022-10-31T22:44:13.132Z,23.05
2022-10-31T22:46:40.492Z,29.88
2022-10-31T22:49:15.099Z,31.50
2022-10-31T22:51:43.933Z,29.23
2022-10-31T22:54:17.306Z,29.70
2022-10-31T22:56:45.328Z,38.70
2022-10-31T22:59:15.662Z,31.88
2022-10-31T23:01:45.808Z,29.17
2022-10-31T23:04:15.720Z,23.75
2022-10-31T23:06:43.459Z,27.17
2022-10-31T23:09:15.876Z,25.45
2022-10-31T23:11:43.388Z,22.38
2022-10-31T23:14:16.470Z,20.88
2022-10-31T23:16:56.278Z,19.15
2022-10-31T23:19:24.569Z,18.65
2022-10-31T23:21:55.306Z,18.60
2022-10-31T23:24:36.787Z,17.30
2022-10-31T23:27:11.409Z,16.63
2022-10-31T23:29:53.091Z,16.48
2022-10-31T23:32:29.054Z,17.77
2022-10-31T23:35:04.701Z,17.80
2022-10-31T23:37:34.739Z,18.05
2022-10-31T23:40:02.047Z,18.95
2022-10-31T23:42:32.399Z,18.25
2022-10-31T23:44:59.468Z,18.35
2022-10-31T23:47:28.856Z,15.48
2022-10-31T23:49:56.037Z,16.33
2022-10-31T23:52:23.146Z,14.20
2022-10-31T23:54:50.304Z,14.93
2022-10-31T23:57:17.795Z,13.02
2022-10-31T23:59:45.159Z,13.93
